createdAt,value
2023-04-01T00:00:10.060Z,52.19
2023-04-01T00:03:00.289Z,52.41
2023-04-01T00:05:28.807Z,52.38
2023-04-01T00:07:57.124Z,52.31
2023-04-01T00:10:26.114Z,52.45
2023-04-01T00:12:54.879Z,52.18
2023-04-01T00:15:23.263Z,52.28
2023-04-01T00:17:54.829Z,52.22
2023-04-01T00:20:23.499Z,52.00
2023-04-01T00:22:52.274Z,51.89
2023-04-01T00:25:21.193Z,52.03
2023-04-01T00:27:49.889Z,52.13
2023-04-01T00:30:18.344Z,52.19
2023-04-01T00:32:47.327Z,52.36
2023-04-01T00:35:16.350Z,52.17
2023-04-01T00:37:44.766Z,52.20
2023-04-01T00:40:23.462Z,52.25
2023-04-01T00:42:52.265Z,52.15
2023-04-01T00:45:29.646Z,52.13
2023-04-01T00:48:00.739Z,52.04
2023-04-01T00:50:30.838Z,52.00
2023-04-01T00:53:00.178Z,51.94
2023-04-01T00:55:29.576Z,51.81
2023-04-01T00:57:58.698Z,51.86
2023-04-01T01:00:27.311Z,51.89
2023-04-01T01:02:56.043Z,51.96
2023-04-01T01:05:34.137Z,51.93
2023-04-01T01:08:09.202Z,52.05
2023-04-01T01:10:39.704Z,51.98
2023-04-01T01:13:12.910Z,52.12
2023-04-01T01:15:47.639Z,52.47
2023-04-01T01:18:21.182Z,52.64
2023-04-01T01:21:04.659Z,52.78
2023-04-01T01:23:47.526Z,52.66
2023-04-01T01:26:26.868Z,52.64
2023-04-01T01:29:02.913Z,52.58
2023-04-01T01:31:35.649Z,52.53
2023-04-01T01:34:10.324Z,52.66
2023-04-01T01:36:40.963Z,52.80
2023-04-01T01:39:11.977Z,52.88
2023-04-01T01:41:43.223Z,52.80
2023-04-01T01:44:14.161Z,52.90
2023-04-01T01:46:43.735Z,52.95
2023-04-01T01:49:13.551Z,52.99
2023-04-01T01:51:43.570Z,52.97
2023-04-01T01:54:14.566Z,53.12
2023-04-01T01:56:45.980Z,53.21
2023-04-01T01:59:16.007Z,53.33
2023-04-01T02:01:46.683Z,53.36
2023-04-01T02:04:16.351Z,53.32
2023-04-01T02:06:48.799Z,53.16
2023-04-01T02:09:17.576Z,53.44
2023-04-01T02:11:48.458Z,53.27
2023-04-01T02:14:18.735Z,53.38
2023-04-01T02:16:53.620Z,53.46
2023-04-01T02:19:23.771Z,53.39
2023-04-01T02:21:55.144Z,53.52
2023-04-01T02:24:24.852Z,53.52
2023-04-01T02:26:54.541Z,53.70
2023-04-01T02:29:25.597Z,53.82
2023-04-01T02:31:54.763Z,53.91
2023-04-01T02:34:24.342Z,53.97
2023-04-01T02:36:54.095Z,54.10
2023-04-01T02:39:23.151Z,54.03
2023-04-01T02:41:51.771Z,54.10
2023-04-01T02:44:20.158Z,54.16
2023-04-01T02:46:48.798Z,54.24
2023-04-01T02:49:18.605Z,54.27
2023-04-01T02:51:46.837Z,54.31
2023-04-01T02:54:15.728Z,54.41
2023-04-01T02:56:45.973Z,54.42
2023-04-01T02:59:14.881Z,54.50
2023-04-01T03:01:45.059Z,54.55
2023-04-01T03:04:16.209Z,54.63
2023-04-01T03:06:44.892Z,54.64
2023-04-01T03:09:14.815Z,54.66
2023-04-01T03:11:43.987Z,54.77
2023-04-01T03:14:13.336Z,54.81
2023-04-01T03:16:42.725Z,54.85
2023-04-01T03:19:11.120Z,54.96
2023-04-01T03:21:40.381Z,54.94
2023-04-01T03:24:08.864Z,55.11
2023-04-01T03:26:37.263Z,55.25
2023-04-01T03:29:05.826Z,55.23
2023-04-01T03:31:34.832Z,55.22
2023-04-01T03:34:03.301Z,55.18
2023-04-01T03:36:32.726Z,55.26
2023-04-01T03:39:01.203Z,55.21
2023-04-01T03:41:29.646Z,55.25
2023-04-01T03:43:58.125Z,55.33
2023-04-01T03:46:26.663Z,55.24
2023-04-01T03:48:55.319Z,55.22
2023-04-01T04:59:45.700Z,55.91
2023-04-01T05:02:16.611Z,55.78
2023-04-01T05:04:45.566Z,55.77
2023-04-01T05:07:14.512Z,55.92
2023-04-01T05:09:46.117Z,55.80
2023-04-01T05:12:15.451Z,55.89
2023-04-01T05:14:44.919Z,55.95
2023-04-01T05:17:15.796Z,56.01
2023-04-01T05:19:46.574Z,55.94
2023-04-01T05:22:16.542Z,56.01
2023-04-01T05:24:45.812Z,55.89
2023-04-01T05:27:18.849Z,55.96
2023-04-01T05:29:47.468Z,55.94
2023-04-01T05:32:16.044Z,55.88
2023-04-01T05:34:45.467Z,55.80
2023-04-01T05:37:14.662Z,55.81
2023-04-01T05:39:44.562Z,55.61
2023-04-01T05:42:14.309Z,55.51
2023-04-01T05:44:43.678Z,55.60
2023-04-01T05:47:12.026Z,55.62
2023-04-01T05:49:41.325Z,55.48
2023-04-01T05:52:10.104Z,55.43
2023-04-01T05:54:38.445Z,55.35
2023-04-01T05:57:06.738Z,55.33
2023-04-01T05:59:35.819Z,55.30
2023-04-01T06:02:04.066Z,55.31
2023-04-01T06:04:36.901Z,55.27
2023-04-01T06:07:11.768Z,55.19
2023-04-01T06:09:41.386Z,55.18
2023-04-01T06:12:26.826Z,55.12
2023-04-01T06:15:01.331Z,55.11
2023-04-01T06:17:50.375Z,54.91
2023-04-01T06:20:28.186Z,54.95
2023-04-01T06:23:15.148Z,54.85
2023-04-01T06:25:54.879Z,54.86
2023-04-01T06:28:34.673Z,54.76
2023-04-01T06:31:04.899Z,54.80
2023-04-01T06:33:43.950Z,54.70
2023-04-01T06:36:30.063Z,54.51
2023-04-01T06:39:17.206Z,54.52
2023-04-01T06:41:58.531Z,54.47
2023-04-01T06:44:31.414Z,54.32
2023-04-01T06:47:02.929Z,54.29
2023-04-01T06:49:49.935Z,54.22
2023-04-01T06:52:24.119Z,54.16
2023-04-01T06:54:54.808Z,54.16
2023-04-01T06:57:26.313Z,54.13
2023-04-01T06:59:59.242Z,54.07
2023-04-01T07:02:33.565Z,53.98
2023-04-01T07:05:03.006Z,53.68
2023-04-01T07:07:35.088Z,53.70
2023-04-01T07:10:05.674Z,53.79
2023-04-01T07:12:38.791Z,53.71
2023-04-01T07:15:13.953Z,53.79
2023-04-01T07:17:44.373Z,53.51
2023-04-01T07:20:17.018Z,53.43
2023-04-01T07:22:48.678Z,53.27
2023-04-01T07:25:18.438Z,53.47
2023-04-01T07:27:47.045Z,53.42
2023-04-01T07:30:18.623Z,53.26
2023-04-01T07:32:49.734Z,53.23
2023-04-01T07:35:27.757Z,53.08
2023-04-01T07:38:03.300Z,53.11
2023-04-01T07:40:39.056Z,53.40
2023-04-01T07:43:16.338Z,53.16
2023-04-01T07:45:48.284Z,53.35
2023-04-01T07:48:23.297Z,53.13
2023-04-01T07:50:58.389Z,53.12
2023-04-01T07:53:29.163Z,53.41
2023-04-01T07:56:03.854Z,53.34
2023-04-01T07:58:36.633Z,53.45
2023-04-01T08:01:10.194Z,53.49
2023-04-01T08:03:50.645Z,53.30
2023-04-01T08:06:21.327Z,53.40
2023-04-01T08:08:56.272Z,53.57
2023-04-01T08:11:32.422Z,53.41
2023-04-01T08:14:06.085Z,53.27
2023-04-01T08:16:39.403Z,53.23
2023-04-01T08:19:17.267Z,53.57
2023-04-01T08:21:48.305Z,53.59
2023-04-01T08:24:22.737Z,53.79
2023-04-01T08:26:54.703Z,53.81
2023-04-01T08:29:25.044Z,54.07
2023-04-01T08:31:57.623Z,54.46
2023-04-01T08:34:29.660Z,54.92
2023-04-01T08:37:04.711Z,55.27
2023-04-01T08:39:36.534Z,55.51
2023-04-01T08:42:15.205Z,55.79
2023-04-01T08:45:01.264Z,55.84
2023-04-01T08:47:42.771Z,55.98
2023-04-01T08:50:29.666Z,56.02
2023-04-01T08:53:04.849Z,56.01
2023-04-01T08:55:38.298Z,55.92
2023-04-01T08:58:23.414Z,55.96
2023-04-01T09:00:55.117Z,56.07
2023-04-01T09:03:40.276Z,55.85
2023-04-01T09:06:25.729Z,55.83
2023-04-01T09:09:03.152Z,55.65
2023-04-01T09:11:47.491Z,55.58
2023-04-01T09:14:49.875Z,55.45
2023-04-01T09:17:36.151Z,55.25
2023-04-01T09:20:18.638Z,55.13
2023-04-01T09:22:52.974Z,55.32
2023-04-01T09:25:38.453Z,55.51
2023-04-01T09:28:11.271Z,55.55
2023-04-01T09:30:50.095Z,55.58
2023-04-01T09:33:32.697Z,55.82
2023-04-01T09:36:08.750Z,55.96
2023-04-01T09:38:46.536Z,56.31
2023-04-01T09:41:22.486Z,56.34
2023-04-01T09:44:02.181Z,56.50
2023-04-01T09:46:37.132Z,56.56
2023-04-01T09:49:27.444Z,56.67
2023-04-01T09:52:03.871Z,56.41
2023-04-01T09:54:40.949Z,56.29
2023-04-01T09:57:28.538Z,55.70
2023-04-01T10:00:10.521Z,56.07
2023-04-01T10:03:04.143Z,56.00
2023-04-01T10:06:02.597Z,56.54
2023-04-01T10:08:53.872Z,58.00
2023-04-01T10:11:49.779Z,57.90
2023-04-01T10:14:28.523Z,58.64
2023-04-01T10:17:07.467Z,58.90
2023-04-01T10:20:01.958Z,57.77
2023-04-01T10:22:47.680Z,57.42
2023-04-01T10:25:35.965Z,57.90
2023-04-01T10:28:20.066Z,58.45
2023-04-01T10:31:07.896Z,58.26
2023-04-01T10:34:02.898Z,57.79
2023-04-01T10:36:52.748Z,57.41
2023-04-01T10:39:34.221Z,57.44
2023-04-01T10:42:19.538Z,57.36
2023-04-01T10:45:11.073Z,57.31
2023-04-01T10:48:08.917Z,56.66
2023-04-01T10:50:52.966Z,56.27
2023-04-01T10:53:42.019Z,55.74
2023-04-01T10:56:28.582Z,55.38
2023-04-01T10:59:16.029Z,54.76
2023-04-01T11:02:14.216Z,54.15
2023-04-01T11:05:21.849Z,54.13
2023-04-01T11:08:07.872Z,55.12
2023-04-01T11:11:05.889Z,54.74
2023-04-01T11:13:46.295Z,53.79
2023-04-01T11:16:34.916Z,53.03
2023-04-01T11:19:27.394Z,53.61
2023-04-01T11:22:10.845Z,53.44
2023-04-01T11:24:50.604Z,53.61
2023-04-01T11:27:25.203Z,53.66
2023-04-01T11:30:17.299Z,53.58
2023-04-01T11:32:51.290Z,52.98
2023-04-01T11:35:34.342Z,53.18
2023-04-01T11:38:08.951Z,53.63
2023-04-01T11:40:41.525Z,53.72
2023-04-01T11:43:26.355Z,53.59
2023-04-01T11:46:05.317Z,53.78
2023-04-01T11:48:43.387Z,53.84
2023-04-01T11:51:33.302Z,53.71
2023-04-01T11:54:05.907Z,53.75
2023-04-01T11:56:47.067Z,53.50
2023-04-01T11:59:40.729Z,53.41
2023-04-01T12:02:12.690Z,52.90
2023-04-01T12:04:48.907Z,52.82
2023-04-01T12:07:22.635Z,52.91
2023-04-01T12:09:54.515Z,52.90
2023-04-01T12:12:26.742Z,52.65
2023-04-01T12:15:01.521Z,52.33
2023-04-01T12:17:35.747Z,52.21
2023-04-01T12:20:16.805Z,52.26
2023-04-01T12:22:53.062Z,51.94
2023-04-01T12:25:32.307Z,51.51
2023-04-01T12:28:11.845Z,51.18
2023-04-01T12:30:56.851Z,50.75
2023-04-01T12:33:30.928Z,50.56
2023-04-01T12:36:08.161Z,50.68
2023-04-01T12:38:46.085Z,50.62
2023-04-01T12:41:20.334Z,51.40
2023-04-01T12:44:04.066Z,51.72
2023-04-01T12:46:36.475Z,51.87
2023-04-01T12:49:21.910Z,52.32
2023-04-01T12:51:57.086Z,52.60
2023-04-01T12:54:54.712Z,52.65
2023-04-01T12:57:31.933Z,53.39
2023-04-01T13:00:11.849Z,53.50
2023-04-01T13:02:50.625Z,53.29
2023-04-01T13:05:37.546Z,53.85
2023-04-01T13:08:28.659Z,53.97
2023-04-01T13:11:15.932Z,54.09
2023-04-01T13:14:03.066Z,54.09
2023-04-01T13:16:32.614Z,53.95
2023-04-01T13:19:05.317Z,54.16
2023-04-01T13:21:39.911Z,54.28
2023-04-01T13:24:12.948Z,54.13
2023-04-01T13:26:57.755Z,54.62
2023-04-01T13:29:31.163Z,54.68
2023-04-01T13:32:22.244Z,54.21
2023-04-01T13:35:01.986Z,54.02
2023-04-01T13:37:48.220Z,53.90
2023-04-01T13:40:24.028Z,53.59
2023-04-01T13:42:55.871Z,53.75
2023-04-01T13:45:27.613Z,53.25
2023-04-01T13:48:04.083Z,53.15
2023-04-01T13:50:52.516Z,53.39
2023-04-01T13:53:34.051Z,53.33
2023-04-01T13:56:09.005Z,53.26
2023-04-01T13:58:52.020Z,53.47
2023-04-01T14:01:26.164Z,53.06
2023-04-01T14:04:13.205Z,52.89
2023-04-01T14:06:50.816Z,52.99
2023-04-01T14:09:33.677Z,53.80
2023-04-01T14:12:06.952Z,54.38
2023-04-01T14:14:41.868Z,54.22
2023-04-01T14:17:26.129Z,54.98
2023-04-01T14:20:18.542Z,55.08
2023-04-01T14:22:54.482Z,56.08
2023-04-01T14:25:37.772Z,55.77
2023-04-01T14:28:13.859Z,55.70
2023-04-01T14:30:52.496Z,55.94
2023-04-01T14:33:27.876Z,56.42
2023-04-01T14:36:09.766Z,56.74
2023-04-01T14:38:44.002Z,56.44
2023-04-01T14:41:21.980Z,56.56
2023-04-01T14:44:05.665Z,56.62
2023-04-01T14:46:48.923Z,56.80
2023-04-01T14:49:21.586Z,56.60
2023-04-01T14:51:52.409Z,56.89
2023-04-01T14:54:23.459Z,56.87
2023-04-01T14:57:04.957Z,57.36
2023-04-01T14:59:33.962Z,56.97
2023-04-01T15:02:10.503Z,57.54
2023-04-01T15:04:57.070Z,57.92
2023-04-01T15:07:49.345Z,58.56
2023-04-01T15:10:30.976Z,58.88
2023-04-01T15:13:07.648Z,58.74
2023-04-01T15:15:47.335Z,59.17
2023-04-01T15:18:19.004Z,59.44
2023-04-01T15:21:07.513Z,59.40
2023-04-01T15:23:42.359Z,59.40
2023-04-01T15:26:18.229Z,59.38
2023-04-01T15:28:58.367Z,59.17
2023-04-01T15:31:30.225Z,59.27
2023-04-01T15:34:09.106Z,59.26
2023-04-01T15:36:42.211Z,59.26
2023-04-01T15:39:18.682Z,59.30
2023-04-01T15:41:51.758Z,59.17
2023-04-01T15:44:45.322Z,58.99
2023-04-01T15:47:34.712Z,58.44
2023-04-01T15:50:16.101Z,58.55
2023-04-01T15:52:51.211Z,58.75
2023-04-01T15:55:28.619Z,58.70
2023-04-01T15:58:06.442Z,58.57
2023-04-01T16:00:47.310Z,58.53
2023-04-01T16:03:26.242Z,58.41
2023-04-01T16:06:10.524Z,59.03
2023-04-01T16:09:04.520Z,58.81
2023-04-01T16:11:41.488Z,58.46
2023-04-01T16:14:19.427Z,58.53
2023-04-01T16:16:55.150Z,58.76
2023-04-01T16:19:29.113Z,58.51
2023-04-01T16:22:02.454Z,59.00
2023-04-01T16:24:40.532Z,58.58
2023-04-01T16:27:14.944Z,58.51
2023-04-01T16:29:46.366Z,58.96
2023-04-01T16:32:29.570Z,58.83
2023-04-01T16:35:05.097Z,58.96
2023-04-01T16:37:40.463Z,59.08
2023-04-01T16:40:19.370Z,58.89
2023-04-01T16:42:51.815Z,59.22
2023-04-01T16:45:32.076Z,59.65
2023-04-01T16:48:06.553Z,59.44
2023-04-01T16:50:43.608Z,59.33
2023-04-01T16:53:18.618Z,59.37
2023-04-01T16:55:50.127Z,59.65
2023-04-01T16:58:24.309Z,59.82
2023-04-01T17:00:56.337Z,60.47
2023-04-01T17:03:43.116Z,61.00
2023-04-01T17:06:22.080Z,61.17
2023-04-01T17:09:02.906Z,60.98
2023-04-01T17:11:34.824Z,61.42
2023-04-01T17:14:09.845Z,61.20
2023-04-01T17:16:56.389Z,61.47
2023-04-01T17:19:30.749Z,61.29
2023-04-01T17:22:03.266Z,61.26
2023-04-01T17:24:41.667Z,61.26
2023-04-01T17:27:15.503Z,61.21
2023-04-01T17:29:57.380Z,61.17
2023-04-01T17:32:33.568Z,61.03
2023-04-01T17:35:08.198Z,61.04
2023-04-01T17:37:46.683Z,61.05
2023-04-01T17:40:27.439Z,61.05
2023-04-01T17:43:13.427Z,61.01
2023-04-01T17:45:45.857Z,61.01
2023-04-01T17:48:21.030Z,61.23
2023-04-01T17:51:07.752Z,61.19
2023-04-01T17:53:43.009Z,61.32
2023-04-01T17:56:16.264Z,61.47
2023-04-01T17:58:47.446Z,61.47
2023-04-01T18:01:31.699Z,61.44
2023-04-01T18:04:08.683Z,61.68
2023-04-01T18:06:50.286Z,61.75
2023-04-01T18:09:26.642Z,61.80
2023-04-01T18:12:01.385Z,61.86
2023-04-01T18:14:45.229Z,62.20
2023-04-01T18:17:24.938Z,62.54
2023-04-01T18:20:03.201Z,63.30
2023-04-01T18:22:39.117Z,63.96
2023-04-01T18:25:14.935Z,64.37
2023-04-01T18:27:50.948Z,64.62
2023-04-01T18:30:22.182Z,64.71
2023-04-01T18:32:55.697Z,64.77
2023-04-01T18:35:34.498Z,64.88
2023-04-01T18:38:06.133Z,65.44
2023-04-01T18:40:37.867Z,65.72
2023-04-01T18:43:19.248Z,65.45
2023-04-01T18:45:52.883Z,65.21
2023-04-01T18:48:35.473Z,65.18
2023-04-01T18:51:11.916Z,65.17
2023-04-01T18:53:43.705Z,65.11
2023-04-01T18:56:16.561Z,64.93
2023-04-01T18:58:52.539Z,65.16
2023-04-01T19:01:26.123Z,65.55
2023-04-01T19:03:58.527Z,65.44
2023-04-01T19:06:30.433Z,65.99
2023-04-01T19:09:11.183Z,65.60
2023-04-01T19:11:50.548Z,66.15
2023-04-01T19:14:27.661Z,66.37
2023-04-01T19:17:02.604Z,66.58
2023-04-01T19:19:47.622Z,66.53
2023-04-01T19:22:23.906Z,68.59
2023-04-01T19:25:12.301Z,68.98
2023-04-01T19:27:48.331Z,68.95
2023-04-01T19:30:25.489Z,69.23
2023-04-01T19:33:08.928Z,69.82
2023-04-01T19:35:44.071Z,69.18
2023-04-01T19:38:22.584Z,69.30
2023-04-01T19:41:05.193Z,69.45
2023-04-01T19:43:45.776Z,70.21
2023-04-01T19:46:20.153Z,69.78
2023-04-01T19:49:04.792Z,69.66
2023-04-01T19:51:49.348Z,70.32
2023-04-01T19:54:23.477Z,70.66
2023-04-01T19:57:00.288Z,69.90
2023-04-01T19:59:35.776Z,70.08
2023-04-01T20:02:19.408Z,70.78
2023-04-01T20:04:49.685Z,71.02
2023-04-01T20:07:29.776Z,71.18
2023-04-01T20:10:06.529Z,71.43
2023-04-01T20:12:43.553Z,70.89
2023-04-01T20:15:29.215Z,71.75
2023-04-01T20:18:02.698Z,71.55
2023-04-01T20:20:35.363Z,72.29
2023-04-01T20:23:28.508Z,71.35
2023-04-01T20:26:03.805Z,70.60
2023-04-01T20:28:39.169Z,70.72
2023-04-01T20:31:19.419Z,70.29
2023-04-01T20:34:11.175Z,70.31
2023-04-01T20:36:54.328Z,70.14
2023-04-01T20:39:43.801Z,70.30
2023-04-01T20:42:35.632Z,70.16
2023-04-01T20:45:18.012Z,70.42
2023-04-01T20:47:55.792Z,70.31
2023-04-01T20:50:31.980Z,70.41
2023-04-01T20:53:06.117Z,70.99
2023-04-01T20:55:58.043Z,70.92
2023-04-01T20:58:33.859Z,70.35
2023-04-01T21:01:10.214Z,70.19
2023-04-01T21:03:46.162Z,70.66
2023-04-01T21:06:34.275Z,70.53
2023-04-01T21:09:13.367Z,70.32
2023-04-01T21:11:48.433Z,70.98
2023-04-01T21:14:31.271Z,70.63
2023-04-01T21:17:04.532Z,70.84
2023-04-01T21:19:44.174Z,70.79
2023-04-01T21:22:24.352Z,71.45
2023-04-01T21:25:13.093Z,71.99
2023-04-01T21:27:50.867Z,72.49
2023-04-01T21:30:38.782Z,72.94
2023-04-01T21:33:17.103Z,72.83
2023-04-01T21:35:53.193Z,71.92
2023-04-01T21:38:34.418Z,72.91
2023-04-01T21:41:15.442Z,72.23
2023-04-01T21:43:58.735Z,73.26
2023-04-01T21:46:46.281Z,73.06
2023-04-01T21:49:26.977Z,73.65
2023-04-01T21:52:11.309Z,73.09
2023-04-01T21:54:54.763Z,72.79
2023-04-01T21:57:59.350Z,73.62
2023-04-01T22:00:34.502Z,74.18
2023-04-01T22:03:27.248Z,74.72
2023-04-01T22:06:02.379Z,74.24
2023-04-01T22:08:43.762Z,75.07
2023-04-01T22:11:17.808Z,74.78
2023-04-01T22:13:51.215Z,74.43
2023-04-01T22:16:26.151Z,74.66
2023-04-01T22:19:07.769Z,76.71
2023-04-01T22:21:43.169Z,77.09
2023-04-01T22:24:13.960Z,78.64
2023-04-01T22:26:46.987Z,78.31
2023-04-01T22:29:18.915Z,76.91
2023-04-01T22:31:50.960Z,77.41
2023-04-01T22:34:32.816Z,78.44
2023-04-01T22:37:10.209Z,78.14
2023-04-01T22:39:49.131Z,78.35
2023-04-01T22:42:27.026Z,80.27
2023-04-01T22:45:04.795Z,80.01
2023-04-01T22:47:43.364Z,79.57
2023-04-01T22:50:20.584Z,79.85
2023-04-01T22:52:57.856Z,80.24
2023-04-01T22:55:34.173Z,81.48
2023-04-01T22:58:11.358Z,80.50
2023-04-01T23:00:44.349Z,80.09
2023-04-01T23:03:17.932Z,80.37
2023-04-01T23:05:56.708Z,80.40
2023-04-01T23:09:00.920Z,80.25
2023-04-01T23:11:40.173Z,80.86
2023-04-01T23:14:46.924Z,81.57
2023-04-01T23:17:26.814Z,81.52
2023-04-01T23:20:11.004Z,81.33
2023-04-01T23:23:00.421Z,82.74
2023-04-01T23:26:03.637Z,82.54
2023-04-01T23:28:46.545Z,81.48
2023-04-01T23:31:42.994Z,82.29
2023-04-01T23:34:22.987Z,82.32
2023-04-01T23:36:56.380Z,82.10
2023-04-01T23:39:29.242Z,82.07
2023-04-01T23:42:03.847Z,81.59
2023-04-01T23:44:38.715Z,81.50
2023-04-01T23:47:27.197Z,81.80
2023-04-01T23:50:05.159Z,81.63
2023-04-01T23:52:41.470Z,82.01
2023-04-01T23:55:15.324Z,81.63
2023-04-01T23:58:01.207Z,81.79
